createdAt,value
2022-07-29T00:03:23.681Z,85.34
2022-07-29T00:08:55.269Z,85.37
2022-07-29T00:14:26.947Z,85.35
2022-07-29T00:19:58.759Z,85.15
2022-07-29T00:25:31.327Z,85.1
2022-07-29T00:31:02.308Z,85.78
2022-07-29T00:36:38.235Z,85.96
2022-07-29T00:42:10.014Z,88.23
2022-07-29T00:47:41.718Z,87.39
2022-07-29T00:53:13.423Z,86.73
2022-07-29T00:58:45.257Z,88.08
2022-07-29T01:04:17.814Z,87.31
2022-07-29T01:09:48.556Z,86.97
2022-07-29T01:15:20.355Z,86.98
2022-07-29T01:20:52.065Z,85.75
2022-07-29T01:26:24.094Z,86.3
2022-07-29T01:32:01.020Z,86.53
2022-07-29T01:37:33.646Z,86.87
2022-07-29T01:43:05.388Z,86.94
2022-07-29T01:48:37.258Z,86.34
2022-07-29T01:54:08.749Z,86.54
2022-07-29T01:59:40.887Z,86.07
2022-07-29T02:05:12.356Z,85.44
2022-07-29T02:10:43.936Z,85.83
2022-07-29T02:16:15.788Z,85.68
2022-07-29T02:21:47.323Z,85.67
2022-07-29T02:27:19.075Z,86.41
2022-07-29T02:32:50.835Z,86.54
2022-07-29T02:38:28.920Z,87.64
2022-07-29T02:44:00.623Z,87.06
2022-07-29T02:49:32.361Z,86.96
2022-07-29T02:55:04.086Z,87.16
2022-07-29T03:00:35.863Z,87.48
2022-07-29T03:06:07.554Z,89.14
2022-07-29T03:11:50.934Z,89.0
2022-07-29T03:17:10.974Z,89.09
2022-07-29T03:22:42.713Z,89.59
2022-07-29T03:28:16.539Z,90.49
2022-07-29T03:33:46.142Z,90.26
2022-07-29T03:39:22.233Z,89.94
2022-07-29T03:44:53.959Z,90.64
2022-07-29T03:50:25.648Z,90.82
2022-07-29T03:55:57.457Z,91.08
2022-07-29T04:01:29.276Z,90.06
2022-07-29T04:07:01.575Z,90.75
2022-07-29T04:12:32.541Z,90.45
2022-07-29T04:18:04.330Z,90.66
2022-07-29T04:23:53.998Z,90.7
2022-07-29T04:29:07.850Z,90.91
2022-07-29T04:34:39.421Z,90.96
2022-07-29T04:40:17.573Z,90.91
2022-07-29T04:45:49.369Z,90.93
2022-07-29T04:51:21.073Z,91.2
2022-07-29T04:56:52.770Z,90.16
2022-07-29T05:02:24.850Z,89.97
2022-07-29T05:07:56.378Z,88.71
2022-07-29T05:13:46.868Z,89.02
2022-07-29T05:18:59.670Z,87.56
2022-07-29T05:24:31.395Z,87.45
2022-07-29T05:30:03.058Z,87.61
2022-07-29T05:35:34.868Z,86.94
2022-07-29T05:41:10.966Z,87.98
2022-07-29T05:46:42.831Z,86.85
2022-07-29T05:52:14.404Z,86.18
2022-07-29T05:57:46.054Z,86.2
2022-07-29T06:03:17.958Z,86.28
2022-07-29T06:08:49.664Z,85.93
2022-07-29T06:14:21.337Z,85.68
2022-07-29T06:19:52.923Z,85.86
2022-07-29T06:25:24.722Z,85.32
2022-07-29T06:30:56.571Z,85.25
2022-07-29T06:36:28.277Z,83.68
2022-07-29T06:42:04.340Z,82.54
2022-07-29T06:47:36.089Z,82.27
2022-07-29T06:53:07.812Z,82.4
2022-07-29T06:58:39.534Z,82.34
2022-07-29T07:04:11.314Z,82.01
2022-07-29T07:09:42.952Z,80.37
2022-07-29T07:15:14.713Z,82.31
2022-07-29T07:20:46.548Z,80.36
2022-07-29T07:26:18.209Z,80.61
2022-07-29T07:31:50.038Z,80.16
2022-07-29T07:37:21.710Z,79.99
2022-07-29T07:42:57.810Z,79.03
2022-07-29T07:48:29.664Z,78.72
2022-07-29T07:54:03.037Z,77.27
2022-07-29T07:59:32.939Z,76.99
2022-07-29T08:05:04.696Z,78.2
2022-07-29T08:10:36.370Z,77.92
2022-07-29T08:16:08.491Z,77.79
2022-07-29T08:21:40.216Z,75.76
2022-07-29T08:27:43.641Z,72.97
2022-07-29T08:32:55.372Z,72.92
2022-07-29T08:38:15.125Z,72.9
2022-07-29T08:43:51.154Z,68.85
2022-07-29T08:49:23.019Z,69.41
2022-07-29T08:54:56.428Z,70.75
2022-07-29T09:00:26.348Z,69.75
2022-07-29T09:05:58.048Z,70.47
2022-07-29T09:11:29.711Z,69.85
2022-07-29T09:17:02.350Z,69.96
2022-07-29T09:22:33.125Z,68.67
2022-07-29T09:28:05.209Z,69.73
2022-07-29T09:33:36.958Z,69.49
2022-07-29T09:39:08.931Z,70.63
2022-07-29T09:44:45.005Z,69.53
2022-07-29T09:50:17.290Z,67.29
2022-07-29T09:55:48.516Z,67.13
2022-07-29T10:01:20.298Z,67.01
2022-07-29T10:06:51.778Z,67.83
2022-07-29T10:12:23.658Z,67.66
2022-07-29T10:17:55.394Z,68.41
2022-07-29T10:23:27.041Z,67.57
2022-07-29T10:28:58.851Z,66.52
2022-07-29T10:34:30.661Z,66.72
2022-07-29T10:40:03.139Z,68.0
2022-07-29T10:45:41.638Z,68.17
2022-07-29T10:51:12.961Z,69.55
2022-07-29T10:56:44.544Z,69.1
2022-07-29T11:02:42.441Z,68.37
2022-07-29T11:07:47.307Z,70.51
2022-07-29T11:13:20.539Z,72.07
2022-07-29T11:18:50.712Z,72.68
2022-07-29T11:24:29.517Z,72.23
2022-07-29T11:29:54.186Z,74.79
2022-07-29T11:36:29.143Z,72.23
2022-07-29T11:40:58.845Z,72.17
2022-07-29T11:46:33.721Z,74.53
2022-07-29T11:52:05.961Z,72.97
2022-07-29T11:57:37.854Z,70.61
2022-07-29T12:03:09.200Z,72.86
2022-07-29T12:08:42.259Z,73.71
2022-07-29T12:14:15.227Z,73.93
2022-07-29T12:19:45.017Z,74.68
2022-07-29T12:25:34.094Z,73.87
2022-07-29T12:30:47.882Z,73.4
2022-07-29T12:36:19.353Z,74.05
2022-07-29T12:41:51.035Z,74.58
2022-07-29T12:47:27.068Z,77.49
2022-07-29T12:52:58.941Z,74.8
2022-07-29T12:58:30.571Z,74.53
2022-07-29T13:04:02.562Z,74.86
2022-07-29T13:09:34.134Z,75.67
2022-07-29T13:15:05.822Z,75.39
2022-07-29T13:20:37.473Z,74.24
2022-07-29T13:26:09.277Z,73.38
2022-07-29T13:31:41.106Z,73.14
2022-07-29T13:37:12.769Z,83.91
2022-07-29T13:42:44.433Z,87.23
2022-07-29T13:48:22.523Z,81.38
2022-07-29T13:53:54.282Z,79.89
2022-07-29T13:59:25.994Z,79.24
2022-07-29T14:04:57.896Z,76.57
2022-07-29T14:10:29.432Z,76.35
2022-07-29T14:16:01.297Z,73.24
2022-07-29T14:21:34.192Z,74.76
2022-07-29T14:27:04.716Z,72.99
2022-07-29T14:32:36.437Z,70.1
2022-07-29T14:38:08.076Z,71.12
2022-07-29T14:43:39.805Z,68.65
2022-07-29T14:49:16.128Z,67.48
2022-07-29T14:54:47.630Z,68.19
2022-07-29T15:00:19.519Z,68.81
2022-07-29T15:05:51.151Z,67.87
2022-07-29T15:11:22.909Z,66.78
2022-07-29T15:16:54.723Z,66.42
2022-07-29T15:22:26.334Z,65.84
2022-07-29T15:28:02.003Z,65.2
2022-07-29T15:33:29.813Z,65.07
2022-07-29T15:39:01.450Z,58.69
2022-07-29T15:44:33.557Z,58.7
2022-07-29T15:50:09.695Z,59.75
2022-07-29T15:55:44.711Z,59.05
2022-07-29T16:01:13.288Z,59.35
2022-07-29T16:06:44.901Z,59.37
2022-07-29T16:12:16.542Z,59.68
2022-07-29T16:17:48.403Z,59.07
2022-07-29T16:23:20.021Z,59.51
2022-07-29T16:28:52.119Z,60.25
2022-07-29T16:34:23.459Z,59.56
2022-07-29T16:39:55.230Z,59.59
2022-07-29T16:45:32.707Z,59.47
2022-07-29T16:51:05.002Z,58.92
2022-07-29T16:56:36.792Z,58.66
2022-07-29T17:02:08.608Z,59.04
2022-07-29T17:07:40.627Z,58.81
2022-07-29T17:13:11.960Z,58.36
2022-07-29T17:18:43.838Z,59.29
2022-07-29T17:24:15.382Z,59.13
2022-07-29T17:29:47.099Z,57.94
2022-07-29T17:35:18.831Z,57.92
2022-07-29T17:40:50.574Z,62.63
2022-07-29T17:46:22.446Z,63.83
2022-07-29T17:52:01.507Z,59.66
2022-07-29T17:57:32.151Z,57.66
2022-07-29T18:03:04.124Z,56.72
2022-07-29T18:08:35.565Z,56.46
2022-07-29T18:14:07.339Z,57.17
2022-07-29T18:19:39.070Z,55.64
2022-07-29T18:25:10.831Z,56.13
2022-07-29T18:30:42.517Z,55.82
2022-07-29T18:36:14.210Z,56.78
2022-07-29T18:41:51.336Z,57.0
2022-07-29T18:47:17.963Z,58.02
2022-07-29T18:52:53.708Z,59.15
2022-07-29T18:58:25.485Z,59.77
2022-07-29T19:03:57.212Z,61.15
2022-07-29T19:09:28.949Z,62.23
2022-07-29T19:15:00.618Z,61.88
2022-07-29T19:20:32.548Z,61.76
2022-07-29T19:26:08.733Z,62.41
2022-07-29T19:31:36.093Z,62.72
2022-07-29T19:37:07.836Z,62.62
2022-07-29T19:42:39.439Z,63.13
2022-07-29T19:48:11.078Z,63.52
2022-07-29T19:53:47.309Z,63.88
2022-07-29T19:59:24.622Z,63.71
2022-07-29T20:04:50.958Z,66.91
2022-07-29T20:10:22.473Z,67.78
2022-07-29T20:15:55.073Z,70.4
2022-07-29T20:21:26.740Z,70.73
2022-07-29T20:26:58.985Z,72.05
2022-07-29T20:32:30.058Z,73.4
2022-07-29T20:38:01.770Z,74.33
2022-07-29T20:43:39.534Z,75.23
2022-07-29T20:49:05.347Z,75.82
2022-07-29T20:54:41.356Z,76.85
2022-07-29T21:00:13.063Z,77.53
2022-07-29T21:05:44.928Z,77.77
2022-07-29T21:11:16.535Z,78.89
2022-07-29T21:16:48.246Z,79.55
2022-07-29T21:22:19.946Z,81.22
2022-07-29T21:27:51.750Z,81.44
2022-07-29T21:33:23.427Z,81.71
2022-07-29T21:38:55.110Z,80.99
2022-07-29T21:44:26.859Z,80.46
2022-07-29T21:49:58.566Z,80.82
2022-07-29T21:55:34.707Z,81.58
2022-07-29T22:01:06.562Z,82.49
2022-07-29T22:06:38.094Z,83.48
2022-07-29T22:12:09.859Z,83.82
2022-07-29T22:17:41.838Z,85.22
2022-07-29T22:23:13.319Z,85.25
2022-07-29T22:28:44.985Z,85.57
2022-07-29T22:34:16.847Z,85.52
2022-07-29T22:39:48.567Z,86.0
2022-07-29T22:45:20.183Z,85.76
2022-07-29T22:50:52.000Z,85.92
2022-07-29T22:56:28.018Z,85.84
2022-07-29T23:01:59.924Z,87.24
2022-07-29T23:07:31.619Z,86.87
2022-07-29T23:13:03.273Z,87.72
2022-07-29T23:18:34.930Z,88.48
2022-07-29T23:24:06.670Z,87.33
2022-07-29T23:29:38.350Z,87.35
2022-07-29T23:35:10.115Z,88.03
2022-07-29T23:40:41.824Z,87.99
2022-07-29T23:46:15.645Z,88.45
2022-07-29T23:51:45.281Z,89.32
2022-07-29T23:57:21.509Z,89.39
